createdAt,value
2023-01-18T00:02:34.568Z,57.47
2023-01-18T00:05:41.211Z,57.13
2023-01-18T00:08:43.491Z,71.40
2023-01-18T00:11:47.439Z,66.83
2023-01-18T00:14:49.672Z,55.57
2023-01-18T00:17:51.865Z,66.70
2023-01-18T00:20:54.183Z,60.63
2023-01-18T00:23:58.938Z,64.73
2023-01-18T00:27:01.289Z,65.57
2023-01-18T00:30:07.864Z,55.00
2023-01-18T00:33:10.174Z,54.97
2023-01-18T00:36:13.256Z,63.20
2023-01-18T00:39:15.943Z,64.17
2023-01-18T00:42:36.428Z,62.13
2023-01-18T00:45:41.010Z,58.90
2023-01-18T00:48:44.271Z,60.10
2023-01-18T00:51:46.595Z,59.77
2023-01-18T00:54:48.581Z,57.17
2023-01-18T00:57:51.007Z,55.70
2023-01-18T01:00:53.530Z,58.13
2023-01-18T01:04:14.369Z,58.43
2023-01-18T01:07:16.346Z,60.83
2023-01-18T01:10:18.792Z,55.90
2023-01-18T01:13:40.685Z,55.20
2023-01-18T01:17:01.672Z,50.27
2023-01-18T01:20:22.467Z,53.67
2023-01-18T01:23:43.887Z,61.97
2023-01-18T01:26:45.843Z,58.43
2023-01-18T01:29:48.312Z,59.40
2023-01-18T01:32:50.566Z,56.00
2023-01-18T01:36:02.235Z,61.57
2023-01-18T01:39:04.740Z,51.13
2023-01-18T01:42:09.758Z,56.27
2023-01-18T01:45:11.779Z,51.20
2023-01-18T01:48:14.036Z,54.90
2023-01-18T01:51:19.654Z,49.87
2023-01-18T01:54:32.453Z,56.27
2023-01-18T01:57:39.417Z,54.20
2023-01-18T02:00:42.137Z,48.90
2023-01-18T02:03:44.217Z,58.03
2023-01-18T02:06:46.436Z,58.40
2023-01-18T02:09:50.438Z,60.40
2023-01-18T02:12:54.737Z,51.57
2023-01-18T02:16:14.614Z,57.73
2023-01-18T02:19:55.247Z,60.27
2023-01-18T02:23:18.557Z,58.57
2023-01-18T02:26:58.291Z,53.53
2023-01-18T02:30:12.739Z,53.47
2023-01-18T02:33:47.061Z,52.50
2023-01-18T02:37:07.174Z,49.97
2023-01-18T02:40:21.935Z,48.37
2023-01-18T02:43:43.600Z,42.07
2023-01-18T02:46:46.441Z,41.53
2023-01-18T02:49:48.394Z,38.83
2023-01-18T02:52:52.077Z,43.00
2023-01-18T02:56:23.111Z,44.07
2023-01-18T02:59:34.692Z,47.67
2023-01-18T03:02:38.964Z,41.83
2023-01-18T03:05:43.653Z,42.30
2023-01-18T03:08:58.071Z,43.60
2023-01-18T03:12:23.733Z,39.60
2023-01-18T03:15:34.319Z,36.90
2023-01-18T03:19:03.027Z,56.50
2023-01-18T03:22:05.550Z,38.30
2023-01-18T03:25:11.302Z,45.67
2023-01-18T03:28:41.147Z,39.57
2023-01-18T03:32:04.088Z,49.63
2023-01-18T03:35:10.584Z,52.40
2023-01-18T03:38:13.782Z,45.53
2023-01-18T03:41:17.472Z,34.90
2023-01-18T03:44:29.392Z,35.13
2023-01-18T03:47:31.955Z,34.33
2023-01-18T03:50:56.206Z,29.00
2023-01-18T03:54:17.869Z,31.93
2023-01-18T03:57:53.963Z,31.30
2023-01-18T04:00:56.073Z,30.27
2023-01-18T04:03:58.422Z,30.50
2023-01-18T04:07:00.470Z,27.57
2023-01-18T04:10:03.068Z,27.27
2023-01-18T04:13:05.071Z,30.63
2023-01-18T04:16:07.600Z,31.03
2023-01-18T04:19:10.819Z,30.33
2023-01-18T04:22:13.966Z,29.57
2023-01-18T04:25:15.955Z,29.17
2023-01-18T04:28:25.473Z,33.10
2023-01-18T04:31:27.574Z,30.70
2023-01-18T04:34:29.870Z,43.70
2023-01-18T04:37:37.033Z,40.23
2023-01-18T04:40:39.348Z,29.90
2023-01-18T04:43:41.340Z,31.27
2023-01-18T04:46:44.018Z,39.80
2023-01-18T04:49:46.067Z,30.60
2023-01-18T04:52:48.319Z,28.17
2023-01-18T04:55:50.363Z,25.77
2023-01-18T04:58:54.349Z,28.53
2023-01-18T05:01:56.320Z,24.43
2023-01-18T05:05:00.082Z,23.67
2023-01-18T05:08:02.252Z,38.63
2023-01-18T05:11:06.433Z,22.23
2023-01-18T05:14:09.006Z,23.83
2023-01-18T05:17:11.299Z,20.83
2023-01-18T05:20:13.720Z,21.40
2023-01-18T05:23:16.103Z,19.13
2023-01-18T05:26:20.974Z,17.87
2023-01-18T05:29:23.715Z,17.20
2023-01-18T05:32:25.899Z,19.27
2023-01-18T05:35:28.709Z,19.53
2023-01-18T05:38:30.883Z,22.67
2023-01-18T05:41:33.162Z,23.17
2023-01-18T05:44:35.380Z,19.57
2023-01-18T05:47:37.934Z,19.37
2023-01-18T05:50:40.918Z,20.87
2023-01-18T05:53:43.223Z,25.00
2023-01-18T05:56:45.262Z,22.27
2023-01-18T05:59:47.522Z,24.70
2023-01-18T06:02:49.504Z,22.27
2023-01-18T06:05:52.649Z,22.30
2023-01-18T06:08:55.239Z,21.37
2023-01-18T06:11:57.518Z,18.37
2023-01-18T06:15:00.499Z,24.50
2023-01-18T06:18:03.086Z,24.73
2023-01-18T06:21:08.130Z,22.07
2023-01-18T06:24:10.720Z,20.20
2023-01-18T06:27:12.681Z,23.93
2023-01-18T06:30:15.707Z,21.50
2023-01-18T06:33:17.814Z,21.60
2023-01-18T06:36:20.096Z,23.37
2023-01-18T06:39:22.125Z,19.20
2023-01-18T06:42:24.464Z,22.13
2023-01-18T06:45:26.835Z,24.13
2023-01-18T06:48:29.866Z,24.80
2023-01-18T06:51:31.898Z,24.20
2023-01-18T06:54:34.270Z,25.63
2023-01-18T06:57:36.267Z,25.40
2023-01-18T07:00:38.846Z,24.30
2023-01-18T07:03:40.863Z,22.67
2023-01-18T07:06:43.264Z,25.07
2023-01-18T07:09:45.287Z,24.63
2023-01-18T07:12:48.913Z,28.27
2023-01-18T07:15:58.000Z,40.73
2023-01-18T07:19:01.869Z,32.57
2023-01-18T07:22:03.898Z,52.23
2023-01-18T07:25:06.651Z,41.33
2023-01-18T07:28:09.193Z,35.10
2023-01-18T07:31:11.534Z,39.13
2023-01-18T07:34:13.824Z,38.13
2023-01-18T07:37:16.147Z,36.37
2023-01-18T07:40:18.638Z,33.27
2023-01-18T07:43:21.104Z,30.07
2023-01-18T07:46:23.602Z,24.50
2023-01-18T07:49:25.925Z,25.83
2023-01-18T07:52:28.112Z,29.97
2023-01-18T07:55:33.553Z,60.03
2023-01-18T07:58:36.226Z,175.50
2023-01-18T08:01:38.677Z,34.33
2023-01-18T08:04:41.914Z,55.03
2023-01-18T08:07:44.278Z,56.43
2023-01-18T08:10:46.284Z,62.20
2023-01-18T08:13:49.374Z,39.40
2023-01-18T08:16:51.391Z,38.83
2023-01-18T08:19:53.684Z,64.50
2023-01-18T08:22:57.474Z,103.57
2023-01-18T08:26:04.014Z,90.47
2023-01-18T08:29:06.427Z,48.37
2023-01-18T08:32:08.763Z,38.73
2023-01-18T08:35:13.267Z,165.70
2023-01-18T08:38:16.622Z,22.87
2023-01-18T08:41:19.828Z,72.90
2023-01-18T08:44:22.207Z,96.33
2023-01-18T08:47:24.172Z,97.20
2023-01-18T08:50:27.593Z,45.27
2023-01-18T08:53:31.318Z,56.00
2023-01-18T08:56:33.638Z,62.17
2023-01-18T08:59:35.654Z,33.57
2023-01-18T09:02:38.026Z,49.13
2023-01-18T09:05:40.313Z,45.57
2023-01-18T09:08:42.882Z,35.97
2023-01-18T09:11:44.830Z,41.53
2023-01-18T09:14:47.144Z,48.03
2023-01-18T09:17:49.140Z,51.57
2023-01-18T09:20:54.218Z,54.17
2023-01-18T09:23:56.368Z,60.93
2023-01-18T09:26:58.701Z,73.07
2023-01-18T09:30:00.934Z,47.90
2023-01-18T09:33:03.294Z,49.00
2023-01-18T09:36:09.672Z,45.90
2023-01-18T09:39:12.155Z,37.63
2023-01-18T09:42:23.725Z,36.80
2023-01-18T09:45:32.465Z,62.07
2023-01-18T09:48:40.030Z,48.50
2023-01-18T09:51:55.117Z,43.03
2023-01-18T09:55:23.503Z,37.90
2023-01-18T09:58:50.523Z,39.70
2023-01-18T10:01:55.932Z,39.77
2023-01-18T10:05:06.030Z,32.77
2023-01-18T10:08:15.405Z,32.23
2023-01-18T10:11:30.072Z,35.13
2023-01-18T10:14:45.308Z,53.40
2023-01-18T10:17:49.472Z,26.93
2023-01-18T10:21:00.041Z,28.43
2023-01-18T10:24:33.430Z,27.93
2023-01-18T10:27:44.384Z,27.67
2023-01-18T10:30:55.891Z,26.93
2023-01-18T10:34:00.928Z,23.23
2023-01-18T10:37:14.698Z,21.93
2023-01-18T10:40:16.938Z,29.73
2023-01-18T10:43:25.091Z,24.83
2023-01-18T10:46:27.988Z,29.27
2023-01-18T10:49:39.420Z,24.10
2023-01-18T10:52:42.326Z,24.63
2023-01-18T10:55:56.578Z,22.43
2023-01-18T10:59:00.403Z,38.27
2023-01-18T11:02:03.235Z,24.63
2023-01-18T11:05:29.046Z,26.17
2023-01-18T11:08:33.919Z,32.13
2023-01-18T11:11:54.697Z,45.43
2023-01-18T11:14:56.976Z,35.33
2023-01-18T11:18:02.834Z,35.77
2023-01-18T11:21:10.345Z,33.20
2023-01-18T11:24:18.479Z,35.33
2023-01-18T11:27:24.008Z,35.47
2023-01-18T11:30:27.271Z,35.90
2023-01-18T11:33:30.938Z,32.20
2023-01-18T11:36:42.323Z,32.60
2023-01-18T11:39:45.600Z,35.13
2023-01-18T11:42:50.272Z,29.40
2023-01-18T11:45:59.590Z,30.00
2023-01-18T11:49:22.382Z,35.90
2023-01-18T11:52:37.720Z,37.20
2023-01-18T11:56:13.485Z,32.67
2023-01-18T11:59:17.966Z,37.80
2023-01-18T12:02:57.361Z,34.33
2023-01-18T12:06:17.081Z,38.83
2023-01-18T12:09:32.316Z,31.97
2023-01-18T12:13:04.937Z,56.13
2023-01-18T12:16:28.891Z,35.23
2023-01-18T12:19:31.147Z,53.07
2023-01-18T12:23:11.916Z,59.67
2023-01-18T12:26:45.335Z,83.27
2023-01-18T12:30:02.242Z,66.87
2023-01-18T12:33:14.388Z,84.30
2023-01-18T12:36:57.881Z,62.53
2023-01-18T12:40:27.587Z,65.93
2023-01-18T12:43:48.514Z,80.17
2023-01-18T12:47:06.069Z,59.13
2023-01-18T12:50:24.882Z,62.33
2023-01-18T12:53:46.035Z,49.37
2023-01-18T12:56:52.953Z,55.53
2023-01-18T13:00:01.639Z,49.90
2023-01-18T13:03:14.835Z,72.80
2023-01-18T13:06:20.031Z,69.53
2023-01-18T13:09:26.681Z,80.30
2023-01-18T13:12:29.359Z,57.80
2023-01-18T13:15:44.164Z,45.63
2023-01-18T13:19:00.116Z,86.80
2023-01-18T13:22:39.683Z,83.30
2023-01-18T13:26:01.212Z,57.93
2023-01-18T13:29:29.226Z,50.10
2023-01-18T13:32:37.728Z,42.63
2023-01-18T13:36:06.312Z,32.33
2023-01-18T13:39:15.544Z,36.07
2023-01-18T13:42:26.193Z,34.83
2023-01-18T13:45:30.337Z,29.07
2023-01-18T13:48:57.510Z,32.60
2023-01-18T13:51:59.856Z,34.20
2023-01-18T13:55:05.548Z,31.97
2023-01-18T13:58:26.386Z,32.60
2023-01-18T14:01:33.413Z,31.00
2023-01-18T14:04:36.257Z,54.13
2023-01-18T14:07:43.177Z,46.07
2023-01-18T14:10:50.142Z,35.30
2023-01-18T14:13:55.259Z,29.50
2023-01-18T14:17:01.128Z,32.13
2023-01-18T14:20:26.354Z,49.60
2023-01-18T14:23:31.700Z,37.00
2023-01-18T14:26:37.409Z,33.80
2023-01-18T14:29:48.687Z,55.40
2023-01-18T14:33:07.269Z,43.93
2023-01-18T14:36:25.728Z,32.67
2023-01-18T14:39:30.134Z,31.87
2023-01-18T14:42:35.040Z,30.83
2023-01-18T14:45:51.206Z,30.27
2023-01-18T14:48:56.347Z,34.90
2023-01-18T14:51:59.371Z,32.90
2023-01-18T14:55:02.491Z,32.73
2023-01-18T14:58:12.290Z,31.37
2023-01-18T15:01:36.210Z,39.77
2023-01-18T15:04:40.166Z,33.40
2023-01-18T15:07:45.949Z,39.00
2023-01-18T15:10:49.062Z,35.53
2023-01-18T15:13:54.398Z,39.63
2023-01-18T15:16:58.729Z,55.13
2023-01-18T15:20:11.810Z,42.10
2023-01-18T15:23:13.990Z,41.77
2023-01-18T15:26:16.307Z,39.23
2023-01-18T15:29:26.061Z,39.10
2023-01-18T15:32:32.360Z,39.80
2023-01-18T15:35:34.560Z,39.30
2023-01-18T15:38:37.262Z,40.47
2023-01-18T15:41:42.061Z,51.67
2023-01-18T15:44:48.220Z,45.13
2023-01-18T15:47:59.811Z,44.73
2023-01-18T15:51:08.439Z,50.50
2023-01-18T15:54:19.573Z,53.47
2023-01-18T15:57:22.985Z,50.30
2023-01-18T16:00:40.699Z,51.70
2023-01-18T16:03:48.771Z,56.90
2023-01-18T16:06:50.775Z,51.63
2023-01-18T16:10:30.326Z,48.40
2023-01-18T16:13:36.134Z,49.17
2023-01-18T16:16:41.188Z,65.20
2023-01-18T16:19:46.066Z,121.73
2023-01-18T16:22:57.961Z,90.40
2023-01-18T16:26:04.544Z,88.60
2023-01-18T16:29:09.035Z,86.00
2023-01-18T16:32:23.095Z,60.40
2023-01-18T16:35:25.677Z,64.03
2023-01-18T16:38:27.771Z,51.20
2023-01-18T16:41:32.061Z,50.20
2023-01-18T16:44:34.158Z,49.63
2023-01-18T16:48:02.763Z,49.20
2023-01-18T16:51:19.442Z,52.87
2023-01-18T16:54:23.138Z,52.97
2023-01-18T16:57:25.359Z,53.13
2023-01-18T17:00:41.818Z,53.27
2023-01-18T17:03:52.631Z,53.77
2023-01-18T17:06:59.355Z,52.40
2023-01-18T17:10:18.879Z,62.37
2023-01-18T17:13:22.705Z,72.87
2023-01-18T17:16:24.989Z,69.67
2023-01-18T17:19:27.841Z,65.97
2023-01-18T17:23:05.238Z,70.57
2023-01-18T17:26:20.791Z,72.73
2023-01-18T17:29:26.068Z,90.77
2023-01-18T17:32:40.662Z,118.40
2023-01-18T17:40:45.125Z,121.77
2023-01-18T17:43:52.610Z,161.77
2023-01-18T17:47:09.664Z,181.23
2023-01-18T17:50:17.522Z,148.30
2023-01-18T17:53:19.886Z,111.13
2023-01-18T17:56:21.988Z,83.67
2023-01-18T17:59:24.434Z,83.27
2023-01-18T18:02:26.807Z,114.10
2023-01-18T18:05:29.489Z,105.03
2023-01-18T18:08:33.272Z,103.03
2023-01-18T18:11:35.708Z,122.93
2023-01-18T18:14:40.097Z,134.63
2023-01-18T18:17:42.450Z,123.67
2023-01-18T18:20:45.258Z,118.50
2023-01-18T18:23:47.546Z,86.33
2023-01-18T18:26:49.682Z,84.97
2023-01-18T18:29:52.050Z,87.07
2023-01-18T18:32:58.243Z,92.93
2023-01-18T18:36:01.649Z,99.87
2023-01-18T18:39:07.717Z,105.63
2023-01-18T18:42:10.036Z,103.93
2023-01-18T18:45:12.334Z,94.50
2023-01-18T18:48:14.995Z,97.47
2023-01-18T18:51:23.842Z,124.40
2023-01-18T18:54:26.726Z,155.07
2023-01-18T18:57:29.476Z,154.50
2023-01-18T19:00:31.888Z,158.43
2023-01-18T19:03:34.925Z,142.67
2023-01-18T19:06:38.248Z,151.77
2023-01-18T19:09:40.394Z,143.30
2023-01-18T19:12:42.876Z,143.33
2023-01-18T19:15:49.058Z,137.20
2023-01-18T19:18:51.569Z,151.63
2023-01-18T19:21:53.799Z,147.97
2023-01-18T19:24:56.252Z,141.60
2023-01-18T19:27:59.483Z,137.40
2023-01-18T19:31:06.456Z,134.47
2023-01-18T19:34:08.464Z,140.63
2023-01-18T19:37:12.523Z,136.07
2023-01-18T19:40:15.979Z,126.10
2023-01-18T19:43:18.424Z,120.77
2023-01-18T19:46:20.685Z,108.30
2023-01-18T19:49:25.053Z,117.10
2023-01-18T19:52:27.351Z,165.00
2023-01-18T19:55:29.887Z,156.03
2023-01-18T19:58:33.452Z,129.20
2023-01-18T20:01:37.388Z,140.73
2023-01-18T20:04:42.146Z,193.90
2023-01-18T20:07:44.632Z,169.70
2023-01-18T20:10:47.344Z,131.53
2023-01-18T20:13:50.596Z,112.83
2023-01-18T20:16:53.339Z,123.20
2023-01-18T20:19:55.894Z,117.87
2023-01-18T20:22:58.379Z,118.63
2023-01-18T20:26:01.220Z,122.67
2023-01-18T20:29:06.690Z,118.53
2023-01-18T20:32:16.119Z,112.27
2023-01-18T20:35:20.097Z,107.23
2023-01-18T20:38:22.482Z,107.53
2023-01-18T20:41:25.388Z,97.77
2023-01-18T20:44:28.560Z,99.17
2023-01-18T20:47:30.834Z,98.50
2023-01-18T20:50:33.427Z,93.67
2023-01-18T20:53:37.934Z,88.43
2023-01-18T20:56:40.675Z,80.37
2023-01-18T20:59:46.072Z,75.67
2023-01-18T21:02:59.124Z,74.77
2023-01-18T21:06:01.634Z,102.37
2023-01-18T21:09:04.372Z,166.00
2023-01-18T21:12:06.603Z,110.87
2023-01-18T21:15:09.857Z,106.83
2023-01-18T21:18:12.564Z,89.33
2023-01-18T21:21:15.832Z,110.93
2023-01-18T21:24:18.804Z,167.53
2023-01-18T21:27:24.735Z,123.57
2023-01-18T21:30:26.830Z,115.60
2023-01-18T21:33:29.629Z,113.50
2023-01-18T21:36:31.960Z,107.20
2023-01-18T21:39:34.600Z,99.93
2023-01-18T21:42:55.202Z,99.87
2023-01-18T21:45:59.277Z,93.23
2023-01-18T21:49:05.627Z,93.77
2023-01-18T21:52:26.433Z,86.27
2023-01-18T21:55:28.556Z,88.07
2023-01-18T21:58:50.638Z,109.53
2023-01-18T22:01:52.885Z,113.23
2023-01-18T22:04:59.202Z,117.17
2023-01-18T22:08:01.728Z,91.60
2023-01-18T22:11:04.248Z,80.83
2023-01-18T22:14:10.315Z,87.80
2023-01-18T22:17:13.305Z,84.50
2023-01-18T22:20:15.820Z,95.27
2023-01-18T22:23:18.096Z,93.40
2023-01-18T22:26:21.485Z,88.33
2023-01-18T22:29:26.912Z,88.70
2023-01-18T22:32:29.024Z,85.87
2023-01-18T22:35:31.802Z,85.57
2023-01-18T22:38:33.931Z,90.07
2023-01-18T22:41:36.347Z,85.33
2023-01-18T22:44:38.315Z,84.20
2023-01-18T22:47:43.753Z,85.93
2023-01-18T22:50:54.870Z,90.37
2023-01-18T22:53:58.368Z,91.23
2023-01-18T22:57:00.392Z,100.43
2023-01-18T23:00:04.513Z,98.47
2023-01-18T23:03:06.537Z,95.13
2023-01-18T23:06:09.119Z,99.00
2023-01-18T23:09:11.702Z,97.30
2023-01-18T23:12:13.976Z,92.43
2023-01-18T23:15:34.688Z,99.63
2023-01-18T23:18:37.023Z,96.90
2023-01-18T23:21:38.987Z,90.60
2023-01-18T23:24:41.338Z,94.90
2023-01-18T23:27:43.332Z,100.10
2023-01-18T23:30:45.631Z,100.63
2023-01-18T23:33:47.777Z,90.27
2023-01-18T23:36:51.182Z,101.70
2023-01-18T23:40:11.602Z,100.97
2023-01-18T23:43:32.588Z,124.63
2023-01-18T23:46:53.152Z,135.13
2023-01-18T23:50:14.156Z,122.87
2023-01-18T23:53:34.691Z,104.53
2023-01-18T23:56:36.938Z,80.43
2023-01-18T23:59:41.495Z,81.50
